createdAt,value
2023-05-14T00:00:54.173Z,11.98
2023-05-14T00:03:25.900Z,11.85
2023-05-14T00:05:52.581Z,12.88
2023-05-14T00:08:19.222Z,12.25
2023-05-14T00:10:45.985Z,12.30
2023-05-14T00:13:17.279Z,12.38
2023-05-14T00:15:44.489Z,12.00
2023-05-14T00:18:13.409Z,12.25
2023-05-14T00:20:42.678Z,11.70
2023-05-14T00:23:09.702Z,12.60
2023-05-14T00:25:36.805Z,12.57
2023-05-14T00:28:04.199Z,12.45
2023-05-14T00:30:30.938Z,12.68
2023-05-14T00:32:59.825Z,11.57
2023-05-14T00:35:26.488Z,12.00
2023-05-14T00:37:55.831Z,13.27
2023-05-14T00:40:26.784Z,13.10
2023-05-14T00:42:56.041Z,12.77
2023-05-14T00:45:25.637Z,12.68
2023-05-14T00:47:53.421Z,12.48
2023-05-14T00:50:20.955Z,13.13
2023-05-14T00:52:47.906Z,12.48
2023-05-14T00:55:16.542Z,12.85
2023-05-14T00:57:45.849Z,12.90
2023-05-14T01:00:13.118Z,12.75
2023-05-14T01:02:39.909Z,12.13
2023-05-14T01:05:09.655Z,13.13
2023-05-14T01:07:47.910Z,12.55
2023-05-14T01:10:42.084Z,12.90
2023-05-14T01:13:18.373Z,12.90
2023-05-14T01:15:47.311Z,13.40
2023-05-14T01:18:18.268Z,13.48
2023-05-14T01:20:48.062Z,13.30
2023-05-14T01:23:14.679Z,13.45
2023-05-14T01:25:41.591Z,14.40
2023-05-14T01:28:17.806Z,15.05
2023-05-14T01:31:19.650Z,13.85
2023-05-14T01:33:51.267Z,15.50
2023-05-14T01:36:20.562Z,14.20
2023-05-14T01:38:51.149Z,14.88
2023-05-14T01:41:21.873Z,15.23
2023-05-14T01:43:48.833Z,14.98
2023-05-14T01:46:19.045Z,15.73
2023-05-14T01:48:46.086Z,15.35
2023-05-14T01:51:15.064Z,15.77
2023-05-14T01:53:41.810Z,15.00
2023-05-14T01:56:08.467Z,16.40
2023-05-14T01:58:37.599Z,16.05
2023-05-14T02:01:04.330Z,15.68
2023-05-14T02:03:33.214Z,15.00
2023-05-14T02:05:59.921Z,15.05
2023-05-14T02:08:26.527Z,14.73
2023-05-14T02:10:55.684Z,15.25
2023-05-14T02:13:22.327Z,15.45
2023-05-14T02:15:52.182Z,15.45
2023-05-14T02:18:18.818Z,15.48
2023-05-14T02:20:46.217Z,15.35
2023-05-14T02:23:12.945Z,16.13
2023-05-14T02:25:43.725Z,15.48
2023-05-14T02:28:12.569Z,16.45
2023-05-14T02:30:41.413Z,16.60
2023-05-14T02:33:12.833Z,15.18
2023-05-14T02:35:39.611Z,16.35
2023-05-14T02:38:08.421Z,15.68
2023-05-14T02:40:39.709Z,15.20
2023-05-14T02:43:06.669Z,15.43
2023-05-14T02:45:33.312Z,14.80
2023-05-14T02:48:02.176Z,14.95
2023-05-14T02:50:30.949Z,15.73
2023-05-14T02:52:57.574Z,15.48
2023-05-14T02:55:26.336Z,15.05
2023-05-14T02:57:53.303Z,15.77
2023-05-14T03:00:20.086Z,16.48
2023-05-14T03:02:51.527Z,15.82
2023-05-14T03:05:18.767Z,15.75
2023-05-14T03:07:47.993Z,15.18
2023-05-14T03:10:14.706Z,16.17
2023-05-14T03:12:43.587Z,16.05
2023-05-14T03:15:10.775Z,15.25
2023-05-14T03:17:42.068Z,16.27
2023-05-14T03:20:12.089Z,15.02
2023-05-14T03:22:38.820Z,15.65
2023-05-14T03:25:10.004Z,16.05
2023-05-14T03:27:41.497Z,16.50
2023-05-14T03:30:11.704Z,15.30
2023-05-14T03:32:38.732Z,15.32
2023-05-14T03:35:06.176Z,14.70
2023-05-14T03:37:37.273Z,15.13
2023-05-14T03:40:04.356Z,15.13
2023-05-14T03:42:30.992Z,15.20
2023-05-14T03:45:02.351Z,13.85
2023-05-14T03:47:29.039Z,15.40
2023-05-14T03:49:56.872Z,14.90
2023-05-14T03:52:25.786Z,14.75
2023-05-14T03:54:52.407Z,14.57
2023-05-14T03:57:19.052Z,15.20
2023-05-14T03:59:45.704Z,14.70
2023-05-14T04:02:12.435Z,13.90
2023-05-14T04:04:42.225Z,13.70
2023-05-14T04:07:08.938Z,14.30
2023-05-14T04:09:35.829Z,15.48
2023-05-14T04:12:02.546Z,14.70
2023-05-14T04:14:29.179Z,14.95
2023-05-14T04:17:00.436Z,14.68
2023-05-14T04:19:29.763Z,15.73
2023-05-14T04:21:58.801Z,15.77
2023-05-14T04:24:25.440Z,15.32
2023-05-14T04:26:52.073Z,15.25
2023-05-14T04:29:20.838Z,14.02
2023-05-14T04:31:48.920Z,15.27
2023-05-14T04:34:17.830Z,14.90
2023-05-14T04:36:44.477Z,14.68
2023-05-14T04:39:13.312Z,15.48
2023-05-14T04:41:42.685Z,15.48
2023-05-14T04:44:09.361Z,15.00
2023-05-14T04:46:38.262Z,14.75
2023-05-14T04:49:07.663Z,16.38
2023-05-14T04:51:34.315Z,14.70
2023-05-14T04:54:01.015Z,16.25
2023-05-14T04:56:27.667Z,14.93
2023-05-14T04:58:56.578Z,16.10
2023-05-14T05:01:23.479Z,15.93
2023-05-14T05:03:55.072Z,16.30
2023-05-14T05:06:24.324Z,15.57
2023-05-14T05:08:51.048Z,17.40
2023-05-14T05:11:17.754Z,16.20
2023-05-14T05:13:46.870Z,16.52
2023-05-14T05:16:16.110Z,15.13
2023-05-14T05:18:44.525Z,16.42
2023-05-14T05:21:11.351Z,16.00
2023-05-14T05:23:37.975Z,16.50
2023-05-14T05:26:06.899Z,16.60
2023-05-14T05:28:35.747Z,16.20
2023-05-14T05:31:06.936Z,16.90
2023-05-14T05:33:34.932Z,16.70
2023-05-14T05:36:01.627Z,16.13
2023-05-14T05:38:30.595Z,16.60
2023-05-14T05:40:57.322Z,17.33
2023-05-14T05:43:23.953Z,16.55
2023-05-14T05:45:50.567Z,16.67
2023-05-14T05:48:17.303Z,16.38
2023-05-14T05:50:49.002Z,16.65
2023-05-14T05:53:20.466Z,16.48
2023-05-14T05:55:51.476Z,15.88
2023-05-14T05:58:19.622Z,16.63
2023-05-14T06:00:53.248Z,17.67
2023-05-14T06:03:22.217Z,17.17
2023-05-14T06:05:52.559Z,18.02
2023-05-14T06:08:19.339Z,17.50
2023-05-14T06:10:47.522Z,17.08
2023-05-14T06:13:17.019Z,17.20
2023-05-14T06:15:43.763Z,16.50
2023-05-14T06:18:10.456Z,17.27
2023-05-14T06:20:41.304Z,18.73
2023-05-14T06:23:12.091Z,19.27
2023-05-14T06:25:38.765Z,21.23
2023-05-14T06:28:05.408Z,21.08
2023-05-14T06:30:34.307Z,19.88
2023-05-14T06:33:01.148Z,21.85
2023-05-14T06:35:32.574Z,21.92
2023-05-14T06:38:01.457Z,22.80
2023-05-14T06:40:28.145Z,21.80
2023-05-14T06:42:54.913Z,21.60
2023-05-14T06:45:23.704Z,22.15
2023-05-14T06:47:50.464Z,23.58
2023-05-14T06:50:17.143Z,24.58
2023-05-14T06:52:44.864Z,23.33
2023-05-14T06:55:11.523Z,23.73
2023-05-14T06:57:40.650Z,23.85
2023-05-14T07:00:08.565Z,22.15
2023-05-14T07:02:37.441Z,23.83
2023-05-14T07:05:09.237Z,23.63
2023-05-14T07:07:35.894Z,24.08
2023-05-14T07:10:02.921Z,26.52
2023-05-14T07:12:29.580Z,25.10
2023-05-14T07:14:57.105Z,24.20
2023-05-14T07:17:26.266Z,24.02
2023-05-14T07:19:52.949Z,23.65
2023-05-14T07:22:19.603Z,22.60
2023-05-14T07:24:46.315Z,22.05
2023-05-14T07:27:13.143Z,22.52
2023-05-14T07:29:44.386Z,20.20
2023-05-14T07:32:15.465Z,18.25
2023-05-14T07:34:42.613Z,18.20
2023-05-14T07:37:09.447Z,17.75
2023-05-14T07:39:38.581Z,16.92
2023-05-14T07:42:05.590Z,17.23
2023-05-14T07:44:32.278Z,17.02
2023-05-14T07:47:01.204Z,17.17
2023-05-14T07:49:28.134Z,16.63
2023-05-14T07:51:59.795Z,17.08
2023-05-14T07:54:28.580Z,15.23
2023-05-14T07:56:57.613Z,15.77
2023-05-14T07:59:26.451Z,16.25
2023-05-14T08:01:53.118Z,12.40
2023-05-14T08:04:23.339Z,11.52
2023-05-14T08:06:50.300Z,11.10
2023-05-14T08:09:17.084Z,10.40
2023-05-14T08:11:43.962Z,10.95
2023-05-14T08:14:12.820Z,11.85
2023-05-14T08:16:39.563Z,12.20
2023-05-14T08:19:06.392Z,8.43
2023-05-14T08:21:33.104Z,8.65
2023-05-14T08:24:02.077Z,7.55
2023-05-14T08:26:31.222Z,10.77
2023-05-14T08:29:00.323Z,9.90
2023-05-14T08:31:31.927Z,9.65
2023-05-14T08:34:01.080Z,10.60
2023-05-14T08:36:30.353Z,10.27
2023-05-14T08:38:57.054Z,9.38
2023-05-14T08:41:28.331Z,6.97
2023-05-14T08:44:06.832Z,6.72
2023-05-14T08:46:35.382Z,6.72
2023-05-14T08:49:16.982Z,7.63
2023-05-14T08:51:48.357Z,7.40
2023-05-14T08:54:17.963Z,7.90
2023-05-14T08:56:47.239Z,7.53
2023-05-14T08:59:14.052Z,7.10
2023-05-14T09:01:47.684Z,7.40
2023-05-14T09:04:23.072Z,8.25
2023-05-14T09:06:54.300Z,8.27
2023-05-14T09:09:22.583Z,7.90
2023-05-14T09:11:54.618Z,9.13
2023-05-14T09:14:23.114Z,9.55
2023-05-14T09:16:51.488Z,9.45
2023-05-14T09:19:19.728Z,8.30
2023-05-14T09:21:49.539Z,9.40
2023-05-14T09:24:26.120Z,9.68
2023-05-14T09:26:56.917Z,8.73
2023-05-14T09:29:30.249Z,8.30
2023-05-14T09:31:58.262Z,8.23
2023-05-14T09:34:31.321Z,8.35
2023-05-14T09:37:05.774Z,7.75
2023-05-14T09:39:41.742Z,10.32
2023-05-14T09:42:08.466Z,10.73
2023-05-14T09:44:37.913Z,9.30
2023-05-14T09:47:04.999Z,10.98
2023-05-14T09:49:31.680Z,11.63
2023-05-14T09:51:58.409Z,10.50
2023-05-14T09:54:29.964Z,12.15
2023-05-14T09:56:59.111Z,12.10
2023-05-14T09:59:25.854Z,11.70
2023-05-14T10:01:55.328Z,12.25
2023-05-14T10:04:22.964Z,10.85
2023-05-14T10:06:52.813Z,10.73
2023-05-14T10:09:28.404Z,9.98
2023-05-14T10:11:59.033Z,10.73
2023-05-14T10:14:38.974Z,10.93
2023-05-14T10:17:06.678Z,10.27
2023-05-14T10:19:37.282Z,10.20
2023-05-14T10:22:09.732Z,9.30
2023-05-14T10:24:38.798Z,8.52
2023-05-14T10:27:08.301Z,8.85
2023-05-14T10:29:37.241Z,9.35
2023-05-14T10:32:06.653Z,9.93
2023-05-14T10:34:43.829Z,10.15
2023-05-14T10:37:13.719Z,9.18
2023-05-14T10:39:45.153Z,9.93
2023-05-14T10:42:13.963Z,10.50
2023-05-14T10:44:47.454Z,9.40
2023-05-14T10:47:16.359Z,8.45
2023-05-14T10:49:48.914Z,7.97
2023-05-14T10:52:21.929Z,7.90
2023-05-14T10:55:02.728Z,8.38
2023-05-14T10:57:33.659Z,8.50
2023-05-14T11:00:01.735Z,7.45
2023-05-14T11:02:35.380Z,7.78
2023-05-14T11:05:03.887Z,7.10
2023-05-14T11:07:34.972Z,7.47
2023-05-14T11:10:18.821Z,5.60
2023-05-14T11:12:50.801Z,6.10
2023-05-14T11:15:21.960Z,7.22
2023-05-14T11:17:50.533Z,7.05
2023-05-14T11:20:20.585Z,6.65
2023-05-14T11:22:48.837Z,6.55
2023-05-14T11:25:18.769Z,7.60
2023-05-14T11:27:47.019Z,7.50
2023-05-14T11:30:21.651Z,6.72
2023-05-14T11:32:52.196Z,6.97
2023-05-14T11:35:18.924Z,7.70
2023-05-14T11:37:52.482Z,7.40
2023-05-14T11:40:19.897Z,6.38
2023-05-14T11:42:48.759Z,6.63
2023-05-14T11:45:26.397Z,6.70
2023-05-14T11:47:56.427Z,6.47
2023-05-14T11:50:23.576Z,6.65
2023-05-14T11:52:50.987Z,5.65
2023-05-14T11:55:18.117Z,5.60
2023-05-14T11:57:45.044Z,6.18
2023-05-14T12:00:21.337Z,5.78
2023-05-14T12:02:49.669Z,4.75
2023-05-14T12:05:16.789Z,4.20
2023-05-14T12:07:47.634Z,4.65
2023-05-14T12:10:14.958Z,4.88
2023-05-14T12:12:47.844Z,4.97
2023-05-14T12:15:18.403Z,4.18
2023-05-14T12:17:55.925Z,4.97
2023-05-14T12:20:26.300Z,4.28
2023-05-14T12:22:53.079Z,4.10
2023-05-14T12:25:22.113Z,4.03
2023-05-14T12:27:48.747Z,4.32
2023-05-14T12:32:45.079Z,3.58
2023-05-14T12:35:14.000Z,3.53
2023-05-14T12:37:43.223Z,2.80
2023-05-14T12:40:10.265Z,3.00
2023-05-14T12:42:37.225Z,3.47
2023-05-14T12:45:08.378Z,2.80
2023-05-14T12:47:36.270Z,3.13
2023-05-14T12:50:06.409Z,2.67
2023-05-14T12:52:39.344Z,3.00
2023-05-14T12:55:10.202Z,4.18
2023-05-14T12:57:38.851Z,2.47
2023-05-14T13:00:13.931Z,2.53
2023-05-14T13:02:42.149Z,3.85
2023-05-14T13:05:12.521Z,4.07
2023-05-14T13:07:39.757Z,4.57
2023-05-14T13:10:07.177Z,4.07
2023-05-14T13:12:38.998Z,4.38
2023-05-14T13:15:06.369Z,3.65
2023-05-14T13:17:33.080Z,3.78
2023-05-14T13:19:59.731Z,3.78
2023-05-14T13:22:26.357Z,3.55
2023-05-14T13:24:53.048Z,3.28
2023-05-14T13:27:19.775Z,3.10
2023-05-14T13:29:48.926Z,2.78
2023-05-14T13:32:15.589Z,2.53
2023-05-14T13:34:43.942Z,2.45
2023-05-14T13:37:12.806Z,2.65
2023-05-14T13:39:40.907Z,3.33
2023-05-14T13:42:10.038Z,2.00
2023-05-14T13:44:38.953Z,2.05
2023-05-14T13:47:05.946Z,1.90
2023-05-14T13:49:32.688Z,1.70
2023-05-14T13:52:01.862Z,1.70
2023-05-14T13:54:31.054Z,1.88
2023-05-14T13:56:57.806Z,1.55
2023-05-14T13:59:24.574Z,1.60
2023-05-14T14:01:51.915Z,1.52
2023-05-14T14:04:19.851Z,1.75
2023-05-14T14:06:46.534Z,1.92
2023-05-14T14:09:13.790Z,1.42
2023-05-14T14:11:41.034Z,1.75
2023-05-14T14:14:07.715Z,1.60
2023-05-14T14:16:37.058Z,1.65
2023-05-14T14:19:03.940Z,1.90
2023-05-14T14:21:34.055Z,1.73
2023-05-14T14:24:03.861Z,1.55
2023-05-14T14:26:30.658Z,1.80
2023-05-14T14:28:57.496Z,1.63
2023-05-14T14:31:26.760Z,1.90
2023-05-14T14:33:53.437Z,1.80
2023-05-14T14:36:20.171Z,1.48
2023-05-14T14:38:46.821Z,1.88
2023-05-14T14:41:13.469Z,1.92
2023-05-14T14:43:43.487Z,1.80
2023-05-14T14:46:10.307Z,1.83
2023-05-14T14:48:39.945Z,1.80
2023-05-14T14:51:07.870Z,2.10
2023-05-14T14:53:40.391Z,1.63
2023-05-14T14:56:09.602Z,2.55
2023-05-14T14:58:41.268Z,2.08
2023-05-14T15:01:07.976Z,2.00
2023-05-14T15:03:39.170Z,1.92
2023-05-14T15:06:08.536Z,1.88
2023-05-14T15:08:35.413Z,2.03
2023-05-14T15:11:02.129Z,2.03
2023-05-14T15:13:31.183Z,2.20
2023-05-14T15:16:00.221Z,1.98
2023-05-14T15:18:26.937Z,1.98
2023-05-14T15:20:53.975Z,1.95
2023-05-14T15:23:23.156Z,1.80
2023-05-14T15:25:54.829Z,2.03
2023-05-14T15:28:23.646Z,1.80
2023-05-14T15:30:50.331Z,1.80
2023-05-14T15:33:19.182Z,1.70
2023-05-14T15:35:46.114Z,1.65
2023-05-14T15:38:15.349Z,1.90
2023-05-14T15:40:42.035Z,2.03
2023-05-14T15:43:11.047Z,2.00
2023-05-14T15:45:37.765Z,2.08
2023-05-14T15:48:04.697Z,1.98
2023-05-14T15:50:31.428Z,2.30
2023-05-14T15:53:00.590Z,1.90
2023-05-14T15:55:27.363Z,2.15
2023-05-14T15:57:54.028Z,2.03
2023-05-14T16:00:24.806Z,2.42
2023-05-14T16:02:52.115Z,2.10
2023-05-14T16:05:19.166Z,2.13
2023-05-14T16:07:45.920Z,2.40
2023-05-14T16:10:12.696Z,3.40
2023-05-14T16:12:39.426Z,3.20
2023-05-14T16:15:07.945Z,2.80
2023-05-14T16:17:34.872Z,2.33
2023-05-14T16:20:04.718Z,2.22
2023-05-14T16:22:35.171Z,2.40
2023-05-14T16:25:03.518Z,1.92
2023-05-14T16:27:32.964Z,2.25
2023-05-14T16:30:01.756Z,2.08
2023-05-14T16:32:28.441Z,2.50
2023-05-14T16:34:58.377Z,2.42
2023-05-14T16:37:25.018Z,2.40
2023-05-14T16:39:54.139Z,2.70
2023-05-14T16:42:21.291Z,2.35
2023-05-14T16:44:47.925Z,2.10
2023-05-14T16:47:14.860Z,2.38
2023-05-14T16:49:44.165Z,2.72
2023-05-14T16:52:10.808Z,2.80
2023-05-14T16:54:37.543Z,2.92
2023-05-14T16:57:04.917Z,2.70
2023-05-14T16:59:34.088Z,2.80
2023-05-14T17:02:00.880Z,2.92
2023-05-14T17:04:27.856Z,3.00
2023-05-14T17:06:55.872Z,3.08
2023-05-14T17:09:24.790Z,2.90
2023-05-14T17:11:56.494Z,3.50
2023-05-14T17:14:23.160Z,3.20
2023-05-14T17:16:49.936Z,3.25
2023-05-14T17:19:16.639Z,3.38
2023-05-14T17:21:45.480Z,3.05
2023-05-14T17:24:12.145Z,3.35
2023-05-14T17:26:41.279Z,3.20
2023-05-14T17:29:08.034Z,3.00
2023-05-14T17:31:37.191Z,2.88
2023-05-14T17:34:06.143Z,2.78
2023-05-14T17:36:33.223Z,3.00
2023-05-14T17:38:59.902Z,3.22
2023-05-14T17:41:28.886Z,3.17
2023-05-14T17:43:57.735Z,3.30
2023-05-14T17:46:29.164Z,2.90
2023-05-14T17:48:58.348Z,3.60
2023-05-14T17:51:25.156Z,3.17
2023-05-14T17:53:51.868Z,3.10
2023-05-14T17:56:19.020Z,3.50
2023-05-14T17:58:46.183Z,3.50
2023-05-14T18:01:12.959Z,3.58
2023-05-14T18:03:42.303Z,3.45
2023-05-14T18:06:09.146Z,3.90
2023-05-14T18:08:35.813Z,3.53
2023-05-14T18:11:02.541Z,3.50
2023-05-14T18:13:31.681Z,3.50
2023-05-14T18:16:01.155Z,3.80
2023-05-14T18:18:28.020Z,3.85
2023-05-14T18:20:54.700Z,3.45
2023-05-14T18:23:21.389Z,3.60
2023-05-14T18:25:50.438Z,3.95
2023-05-14T18:28:18.520Z,4.20
2023-05-14T18:30:49.064Z,3.50
2023-05-14T18:33:20.679Z,3.90
2023-05-14T18:35:49.766Z,3.78
2023-05-14T18:38:17.802Z,3.90
2023-05-14T18:40:44.552Z,4.32
2023-05-14T18:43:13.277Z,3.75
2023-05-14T18:45:40.375Z,4.32
2023-05-14T18:48:07.166Z,3.78
2023-05-14T18:50:33.936Z,3.90
2023-05-14T18:53:02.724Z,4.05
2023-05-14T18:55:32.177Z,3.80
2023-05-14T18:58:03.480Z,4.00
2023-05-14T19:00:30.329Z,4.30
2023-05-14T19:02:57.264Z,3.92
2023-05-14T19:05:24.225Z,4.10
2023-05-14T19:07:51.128Z,3.45
2023-05-14T19:10:17.872Z,4.15
2023-05-14T19:12:45.934Z,4.05
2023-05-14T19:15:12.707Z,3.70
2023-05-14T19:17:39.545Z,4.07
2023-05-14T19:20:09.548Z,4.18
2023-05-14T19:22:36.289Z,3.20
2023-05-14T19:25:04.313Z,3.10
2023-05-14T19:27:36.803Z,3.13
2023-05-14T19:30:06.199Z,3.40
2023-05-14T19:32:32.869Z,3.55
2023-05-14T19:34:59.554Z,3.30
2023-05-14T19:37:28.509Z,4.07
2023-05-14T19:39:55.185Z,3.42
2023-05-14T19:42:21.883Z,3.80
2023-05-14T19:44:50.987Z,3.63
2023-05-14T19:47:19.870Z,3.63
2023-05-14T19:49:46.529Z,3.97
2023-05-14T19:52:13.177Z,4.10
2023-05-14T19:54:39.827Z,4.35
2023-05-14T19:57:11.828Z,4.30
2023-05-14T19:59:39.404Z,4.40
2023-05-14T20:02:12.333Z,4.15
2023-05-14T20:04:39.909Z,4.07
2023-05-14T20:07:06.673Z,4.07
2023-05-14T20:09:35.847Z,4.32
2023-05-14T20:12:04.632Z,4.60
2023-05-14T20:14:31.292Z,4.68
2023-05-14T20:16:59.842Z,5.13
2023-05-14T20:19:27.514Z,4.55
2023-05-14T20:21:56.867Z,4.65
2023-05-14T20:24:23.564Z,4.53
2023-05-14T20:26:50.575Z,5.05
2023-05-14T20:29:19.760Z,4.80
2023-05-14T20:31:48.762Z,4.85
2023-05-14T20:34:15.443Z,4.88
2023-05-14T20:36:42.286Z,4.72
2023-05-14T20:39:08.943Z,4.70
2023-05-14T20:41:35.702Z,4.57
2023-05-14T20:44:02.375Z,4.93
2023-05-14T20:46:31.502Z,5.20
2023-05-14T20:49:01.180Z,4.72
2023-05-14T20:51:27.962Z,4.70
2023-05-14T20:53:54.791Z,4.78
2023-05-14T20:56:26.453Z,4.95
2023-05-14T20:58:55.926Z,4.78
2023-05-14T21:01:22.718Z,5.00
2023-05-14T21:03:49.706Z,4.68
2023-05-14T21:06:18.708Z,4.60
2023-05-14T21:08:45.573Z,4.90
2023-05-14T21:11:12.204Z,4.90
2023-05-14T21:13:42.830Z,4.47
2023-05-14T21:16:12.793Z,4.85
2023-05-14T21:18:42.155Z,5.20
2023-05-14T21:21:08.798Z,5.07
2023-05-14T21:23:35.639Z,4.90
2023-05-14T21:26:02.387Z,4.97
2023-05-14T21:28:29.060Z,5.30
2023-05-14T21:30:57.528Z,5.50
2023-05-14T21:33:24.231Z,5.28
2023-05-14T21:35:50.985Z,5.82
2023-05-14T21:38:20.084Z,5.93
2023-05-14T21:40:46.742Z,6.03
2023-05-14T21:43:13.459Z,5.95
2023-05-14T21:45:42.772Z,5.60
2023-05-14T21:48:09.670Z,6.20
2023-05-14T21:50:36.833Z,5.45
2023-05-14T21:53:03.528Z,6.25
2023-05-14T21:55:30.369Z,6.60
2023-05-14T21:57:59.623Z,6.10
2023-05-14T22:00:26.553Z,6.10
2023-05-14T22:02:55.921Z,5.55
2023-05-14T22:05:25.157Z,5.70
2023-05-14T22:07:54.485Z,5.70
2023-05-14T22:10:23.443Z,5.75
2023-05-14T22:12:50.172Z,5.57
2023-05-14T22:15:19.181Z,6.53
2023-05-14T22:17:47.394Z,6.18
2023-05-14T22:20:16.597Z,5.85
2023-05-14T22:22:43.331Z,5.75
2023-05-14T22:25:10.336Z,5.78
2023-05-14T22:27:41.674Z,5.82
2023-05-14T22:30:08.796Z,5.82
2023-05-14T22:32:35.519Z,6.18
2023-05-14T22:35:02.415Z,5.97
2023-05-14T22:37:29.078Z,6.80
2023-05-14T22:39:55.759Z,6.10
2023-05-14T22:42:24.991Z,6.35
2023-05-14T22:44:53.812Z,6.15
2023-05-14T22:47:20.615Z,7.03
2023-05-14T22:49:49.765Z,6.65
2023-05-14T22:52:21.759Z,7.43
2023-05-14T22:54:50.928Z,7.25
2023-05-14T22:57:17.893Z,7.70
2023-05-14T22:59:44.670Z,8.30
2023-05-14T23:02:11.421Z,7.72
2023-05-14T23:04:38.371Z,7.68
2023-05-14T23:07:07.964Z,7.57
2023-05-14T23:09:39.212Z,7.80
2023-05-14T23:12:09.472Z,8.95
2023-05-14T23:14:36.094Z,8.13
2023-05-14T23:17:03.082Z,8.52
2023-05-14T23:19:31.876Z,9.07
2023-05-14T23:22:01.051Z,8.93
2023-05-14T23:24:27.677Z,8.40
2023-05-14T23:26:54.607Z,8.52
2023-05-14T23:29:25.921Z,9.80
2023-05-14T23:31:52.589Z,9.32
2023-05-14T23:34:19.271Z,9.27
2023-05-14T23:36:45.902Z,9.70
2023-05-14T23:39:12.593Z,10.18
2023-05-14T23:41:39.257Z,10.02
2023-05-14T23:44:10.818Z,10.27
2023-05-14T23:46:40.101Z,10.10
2023-05-14T23:49:09.269Z,11.13
2023-05-14T23:51:37.649Z,11.00
2023-05-14T23:54:04.609Z,11.10
2023-05-14T23:56:31.662Z,10.70
2023-05-14T23:58:58.460Z,13.15
